<?xml version="1.0" encoding="UTF-8" standalone="no" ?>
<gpx xmlns="http://www.topografix.com/GPX/1/1" xmlns:xsi="http://www.w3.org/2001/XMLSchema-instance" xsi:schemaLocation="http://www.topografix.com/GPX/1/1 http://www.topografix.com/GPX/1/1/gpx.xsd" version="1.1" creator="VisuGPX - https://www.visugpx.com">
  <metadata>
    <name>83 - L - Lorgues</name>
    <desc><![CDATA[83 - L - Lorgues - rando crêpes Estello - St Jaume - Peycervier St Jaume]]></desc>
  </metadata>
  <trk>
    <name><![CDATA[Lorgues rando crêpes matin 2025-02-24-01]]></name>
    <trkseg>
      <trkpt lat="43.48135" lon="6.32821">
        <ele>-27.1</ele>
        <time>2025-02-24T07:49:19Z</time>
      </trkpt>
      <trkpt lat="43.48134" lon="6.32824">
        <ele>-27</ele>
        <time>2025-02-24T07:49:20Z</time>
      </trkpt>
      <trkpt lat="43.48144" lon="6.32826">
        <ele>154.5</ele>
        <time>2025-02-24T07:50:34Z</time>
      </trkpt>
      <trkpt lat="43.48134" lon="6.32829">
        <ele>154.7</ele>
        <time>2025-02-24T07:51:00Z</time>
      </trkpt>
      <trkpt lat="43.48138" lon="6.32842">
        <ele>155</ele>
        <time>2025-02-24T07:52:36Z</time>
      </trkpt>
      <trkpt lat="43.48141" lon="6.32854">
        <ele>155.9</ele>
        <time>2025-02-24T07:53:28Z</time>
      </trkpt>
      <trkpt lat="43.4814" lon="6.32867">
        <ele>156.5</ele>
        <time>2025-02-24T07:53:57Z</time>
      </trkpt>
      <trkpt lat="43.4814" lon="6.32879">
        <ele>156.2</ele>
        <time>2025-02-24T07:54:07Z</time>
      </trkpt>
      <trkpt lat="43.48142" lon="6.32893">
        <ele>156.2</ele>
        <time>2025-02-24T07:54:18Z</time>
      </trkpt>
      <trkpt lat="43.48144" lon="6.32906">
        <ele>155.9</ele>
        <time>2025-02-24T07:54:28Z</time>
      </trkpt>
      <trkpt lat="43.48147" lon="6.32918">
        <ele>155.4</ele>
        <time>2025-02-24T07:54:39Z</time>
      </trkpt>
      <trkpt lat="43.48149" lon="6.32931">
        <ele>155.3</ele>
        <time>2025-02-24T07:54:48Z</time>
      </trkpt>
      <trkpt lat="43.48153" lon="6.32943">
        <ele>155.1</ele>
        <time>2025-02-24T07:54:58Z</time>
      </trkpt>
      <trkpt lat="43.48155" lon="6.32957">
        <ele>154.8</ele>
        <time>2025-02-24T07:55:07Z</time>
      </trkpt>
      <trkpt lat="43.48158" lon="6.32968">
        <ele>154.5</ele>
        <time>2025-02-24T07:55:16Z</time>
      </trkpt>
      <trkpt lat="43.48161" lon="6.3298">
        <ele>154</ele>
        <time>2025-02-24T07:55:26Z</time>
      </trkpt>
      <trkpt lat="43.48163" lon="6.32993">
        <ele>153.9</ele>
        <time>2025-02-24T07:55:35Z</time>
      </trkpt>
      <trkpt lat="43.48165" lon="6.33006">
        <ele>153.8</ele>
        <time>2025-02-24T07:55:45Z</time>
      </trkpt>
      <trkpt lat="43.48166" lon="6.33019">
        <ele>153.6</ele>
        <time>2025-02-24T07:55:54Z</time>
      </trkpt>
      <trkpt lat="43.4817" lon="6.33031">
        <ele>153.6</ele>
        <time>2025-02-24T07:56:03Z</time>
      </trkpt>
      <trkpt lat="43.48173" lon="6.33044">
        <ele>153.9</ele>
        <time>2025-02-24T07:56:12Z</time>
      </trkpt>
      <trkpt lat="43.48176" lon="6.33056">
        <ele>154.2</ele>
        <time>2025-02-24T07:56:21Z</time>
      </trkpt>
      <trkpt lat="43.48179" lon="6.33068">
        <ele>154</ele>
        <time>2025-02-24T07:56:30Z</time>
      </trkpt>
      <trkpt lat="43.48186" lon="6.33078">
        <ele>155.2</ele>
        <time>2025-02-24T07:56:39Z</time>
      </trkpt>
      <trkpt lat="43.48191" lon="6.33089">
        <ele>156.2</ele>
        <time>2025-02-24T07:56:49Z</time>
      </trkpt>
      <trkpt lat="43.48199" lon="6.33096">
        <ele>156.4</ele>
        <time>2025-02-24T07:56:58Z</time>
      </trkpt>
      <trkpt lat="43.48207" lon="6.33102">
        <ele>157.1</ele>
        <time>2025-02-24T07:57:06Z</time>
      </trkpt>
      <trkpt lat="43.48217" lon="6.33104">
        <ele>158.4</ele>
        <time>2025-02-24T07:57:15Z</time>
      </trkpt>
      <trkpt lat="43.48226" lon="6.33103">
        <ele>158.1</ele>
        <time>2025-02-24T07:57:23Z</time>
      </trkpt>
      <trkpt lat="43.48235" lon="6.33101">
        <ele>158.6</ele>
        <time>2025-02-24T07:57:31Z</time>
      </trkpt>
      <trkpt lat="43.48245" lon="6.33101">
        <ele>159.5</ele>
        <time>2025-02-24T07:57:40Z</time>
      </trkpt>
      <trkpt lat="43.48255" lon="6.331">
        <ele>160.5</ele>
        <time>2025-02-24T07:58:02Z</time>
      </trkpt>
      <trkpt lat="43.48264" lon="6.33099">
        <ele>161</ele>
        <time>2025-02-24T07:58:11Z</time>
      </trkpt>
      <trkpt lat="43.48274" lon="6.33099">
        <ele>162.7</ele>
        <time>2025-02-24T07:58:23Z</time>
      </trkpt>
      <trkpt lat="43.48283" lon="6.33101">
        <ele>164</ele>
        <time>2025-02-24T07:58:34Z</time>
      </trkpt>
      <trkpt lat="43.48292" lon="6.33101">
        <ele>164</ele>
        <time>2025-02-24T07:59:44Z</time>
      </trkpt>
      <trkpt lat="43.48301" lon="6.33101">
        <ele>164.3</ele>
        <time>2025-02-24T07:59:55Z</time>
      </trkpt>
      <trkpt lat="43.48311" lon="6.331">
        <ele>165</ele>
        <time>2025-02-24T08:00:06Z</time>
      </trkpt>
      <trkpt lat="43.4832" lon="6.33099">
        <ele>165.4</ele>
        <time>2025-02-24T08:00:22Z</time>
      </trkpt>
      <trkpt lat="43.48329" lon="6.33099">
        <ele>165.7</ele>
        <time>2025-02-24T08:00:34Z</time>
      </trkpt>
      <trkpt lat="43.48339" lon="6.33097">
        <ele>166.1</ele>
        <time>2025-02-24T08:00:43Z</time>
      </trkpt>
      <trkpt lat="43.48349" lon="6.33096">
        <ele>166.8</ele>
        <time>2025-02-24T08:00:59Z</time>
      </trkpt>
      <trkpt lat="43.48358" lon="6.33093">
        <ele>167.2</ele>
        <time>2025-02-24T08:01:11Z</time>
      </trkpt>
      <trkpt lat="43.48367" lon="6.33095">
        <ele>167.7</ele>
        <time>2025-02-24T08:01:22Z</time>
      </trkpt>
      <trkpt lat="43.48377" lon="6.33095">
        <ele>168.4</ele>
        <time>2025-02-24T08:01:38Z</time>
      </trkpt>
      <trkpt lat="43.48386" lon="6.33093">
        <ele>168.6</ele>
        <time>2025-02-24T08:01:57Z</time>
      </trkpt>
      <trkpt lat="43.48395" lon="6.33093">
        <ele>168.7</ele>
        <time>2025-02-24T08:02:10Z</time>
      </trkpt>
      <trkpt lat="43.48405" lon="6.33092">
        <ele>168.9</ele>
        <time>2025-02-24T08:02:22Z</time>
      </trkpt>
      <trkpt lat="43.48415" lon="6.33094">
        <ele>169.4</ele>
        <time>2025-02-24T08:02:40Z</time>
      </trkpt>
      <trkpt lat="43.48421" lon="6.33084">
        <ele>169.8</ele>
        <time>2025-02-24T08:02:54Z</time>
      </trkpt>
      <trkpt lat="43.48424" lon="6.33071">
        <ele>170.2</ele>
        <time>2025-02-24T08:03:04Z</time>
      </trkpt>
      <trkpt lat="43.48431" lon="6.33062">
        <ele>170.8</ele>
        <time>2025-02-24T08:03:17Z</time>
      </trkpt>
      <trkpt lat="43.48432" lon="6.3305">
        <ele>171.7</ele>
        <time>2025-02-24T08:03:30Z</time>
      </trkpt>
      <trkpt lat="43.48431" lon="6.33037">
        <ele>173</ele>
        <time>2025-02-24T08:03:45Z</time>
      </trkpt>
      <trkpt lat="43.48436" lon="6.33025">
        <ele>173.8</ele>
        <time>2025-02-24T08:03:54Z</time>
      </trkpt>
      <trkpt lat="43.48444" lon="6.33018">
        <ele>174.6</ele>
        <time>2025-02-24T08:04:40Z</time>
      </trkpt>
      <trkpt lat="43.48453" lon="6.33016">
        <ele>174.9</ele>
        <time>2025-02-24T08:04:51Z</time>
      </trkpt>
      <trkpt lat="43.48461" lon="6.33012">
        <ele>175.6</ele>
        <time>2025-02-24T08:05:00Z</time>
      </trkpt>
      <trkpt lat="43.4847" lon="6.33009">
        <ele>175.8</ele>
        <time>2025-02-24T08:05:09Z</time>
      </trkpt>
      <trkpt lat="43.48479" lon="6.33005">
        <ele>175.8</ele>
        <time>2025-02-24T08:05:18Z</time>
      </trkpt>
      <trkpt lat="43.48487" lon="6.32999">
        <ele>175.6</ele>
        <time>2025-02-24T08:05:26Z</time>
      </trkpt>
      <trkpt lat="43.48496" lon="6.32994">
        <ele>174.7</ele>
        <time>2025-02-24T08:05:41Z</time>
      </trkpt>
      <trkpt lat="43.48505" lon="6.3299">
        <ele>174.4</ele>
        <time>2025-02-24T08:05:50Z</time>
      </trkpt>
      <trkpt lat="43.48514" lon="6.32985">
        <ele>173.8</ele>
        <time>2025-02-24T08:05:59Z</time>
      </trkpt>
      <trkpt lat="43.48522" lon="6.32979">
        <ele>173</ele>
        <time>2025-02-24T08:06:07Z</time>
      </trkpt>
      <trkpt lat="43.4853" lon="6.32972">
        <ele>172.5</ele>
        <time>2025-02-24T08:06:15Z</time>
      </trkpt>
      <trkpt lat="43.48539" lon="6.32966">
        <ele>171.9</ele>
        <time>2025-02-24T08:07:13Z</time>
      </trkpt>
      <trkpt lat="43.48548" lon="6.32959">
        <ele>171.1</ele>
        <time>2025-02-24T08:08:35Z</time>
      </trkpt>
      <trkpt lat="43.48556" lon="6.32951">
        <ele>170.6</ele>
        <time>2025-02-24T08:08:43Z</time>
      </trkpt>
      <trkpt lat="43.48562" lon="6.32941">
        <ele>171.2</ele>
        <time>2025-02-24T08:08:50Z</time>
      </trkpt>
      <trkpt lat="43.4857" lon="6.32933">
        <ele>171.2</ele>
        <time>2025-02-24T08:08:57Z</time>
      </trkpt>
      <trkpt lat="43.48579" lon="6.32929">
        <ele>171.7</ele>
        <time>2025-02-24T08:09:05Z</time>
      </trkpt>
      <trkpt lat="43.48589" lon="6.32925">
        <ele>170.9</ele>
        <time>2025-02-24T08:09:13Z</time>
      </trkpt>
      <trkpt lat="43.48596" lon="6.32915">
        <ele>171.8</ele>
        <time>2025-02-24T08:09:22Z</time>
      </trkpt>
      <trkpt lat="43.48605" lon="6.32908">
        <ele>172.7</ele>
        <time>2025-02-24T08:09:31Z</time>
      </trkpt>
      <trkpt lat="43.48612" lon="6.32899">
        <ele>174.2</ele>
        <time>2025-02-24T08:09:40Z</time>
      </trkpt>
      <trkpt lat="43.4862" lon="6.3289">
        <ele>175.6</ele>
        <time>2025-02-24T08:09:49Z</time>
      </trkpt>
      <trkpt lat="43.48627" lon="6.32882">
        <ele>176.9</ele>
        <time>2025-02-24T08:09:57Z</time>
      </trkpt>
      <trkpt lat="43.48635" lon="6.32874">
        <ele>178.4</ele>
        <time>2025-02-24T08:10:06Z</time>
      </trkpt>
      <trkpt lat="43.48642" lon="6.32866">
        <ele>179.1</ele>
        <time>2025-02-24T08:10:15Z</time>
      </trkpt>
      <trkpt lat="43.4865" lon="6.32859">
        <ele>181</ele>
        <time>2025-02-24T08:10:24Z</time>
      </trkpt>
      <trkpt lat="43.48658" lon="6.32853">
        <ele>182.4</ele>
        <time>2025-02-24T08:10:34Z</time>
      </trkpt>
      <trkpt lat="43.48667" lon="6.32848">
        <ele>183.6</ele>
        <time>2025-02-24T08:10:44Z</time>
      </trkpt>
      <trkpt lat="43.48676" lon="6.32843">
        <ele>184.1</ele>
        <time>2025-02-24T08:10:54Z</time>
      </trkpt>
      <trkpt lat="43.48685" lon="6.32843">
        <ele>184.4</ele>
        <time>2025-02-24T08:12:00Z</time>
      </trkpt>
      <trkpt lat="43.48694" lon="6.32845">
        <ele>185.1</ele>
        <time>2025-02-24T08:12:12Z</time>
      </trkpt>
      <trkpt lat="43.48703" lon="6.32844">
        <ele>185.9</ele>
        <time>2025-02-24T08:12:51Z</time>
      </trkpt>
      <trkpt lat="43.48711" lon="6.3285">
        <ele>186.2</ele>
        <time>2025-02-24T08:13:02Z</time>
      </trkpt>
      <trkpt lat="43.4872" lon="6.32854">
        <ele>186.8</ele>
        <time>2025-02-24T08:13:13Z</time>
      </trkpt>
      <trkpt lat="43.48728" lon="6.32861">
        <ele>187.6</ele>
        <time>2025-02-24T08:13:24Z</time>
      </trkpt>
      <trkpt lat="43.48738" lon="6.32864">
        <ele>188.5</ele>
        <time>2025-02-24T08:13:34Z</time>
      </trkpt>
      <trkpt lat="43.48747" lon="6.32865">
        <ele>189.1</ele>
        <time>2025-02-24T08:13:44Z</time>
      </trkpt>
      <trkpt lat="43.48757" lon="6.32867">
        <ele>189.5</ele>
        <time>2025-02-24T08:13:53Z</time>
      </trkpt>
      <trkpt lat="43.48767" lon="6.32869">
        <ele>189.8</ele>
        <time>2025-02-24T08:14:04Z</time>
      </trkpt>
      <trkpt lat="43.48775" lon="6.32871">
        <ele>189.8</ele>
        <time>2025-02-24T08:14:15Z</time>
      </trkpt>
      <trkpt lat="43.48784" lon="6.32875">
        <ele>190.2</ele>
        <time>2025-02-24T08:14:27Z</time>
      </trkpt>
      <trkpt lat="43.48793" lon="6.32877">
        <ele>190.6</ele>
        <time>2025-02-24T08:15:09Z</time>
      </trkpt>
      <trkpt lat="43.48802" lon="6.32878">
        <ele>190.8</ele>
        <time>2025-02-24T08:15:22Z</time>
      </trkpt>
      <trkpt lat="43.48812" lon="6.3288">
        <ele>191.5</ele>
        <time>2025-02-24T08:15:32Z</time>
      </trkpt>
      <trkpt lat="43.48821" lon="6.32883">
        <ele>191.5</ele>
        <time>2025-02-24T08:15:42Z</time>
      </trkpt>
      <trkpt lat="43.4883" lon="6.32885">
        <ele>190.9</ele>
        <time>2025-02-24T08:15:51Z</time>
      </trkpt>
      <trkpt lat="43.48839" lon="6.32888">
        <ele>189.7</ele>
        <time>2025-02-24T08:16:02Z</time>
      </trkpt>
      <trkpt lat="43.48848" lon="6.3289">
        <ele>188.5</ele>
        <time>2025-02-24T08:16:11Z</time>
      </trkpt>
      <trkpt lat="43.48858" lon="6.32894">
        <ele>187.5</ele>
        <time>2025-02-24T08:16:20Z</time>
      </trkpt>
      <trkpt lat="43.48867" lon="6.32897">
        <ele>186.7</ele>
        <time>2025-02-24T08:16:31Z</time>
      </trkpt>
      <trkpt lat="43.48876" lon="6.32898">
        <ele>185.1</ele>
        <time>2025-02-24T08:16:41Z</time>
      </trkpt>
      <trkpt lat="43.48886" lon="6.32897">
        <ele>184.8</ele>
        <time>2025-02-24T08:16:53Z</time>
      </trkpt>
      <trkpt lat="43.48896" lon="6.32897">
        <ele>184.6</ele>
        <time>2025-02-24T08:17:01Z</time>
      </trkpt>
      <trkpt lat="43.48905" lon="6.32895">
        <ele>184.6</ele>
        <time>2025-02-24T08:17:09Z</time>
      </trkpt>
      <trkpt lat="43.48914" lon="6.32896">
        <ele>185.1</ele>
        <time>2025-02-24T08:17:16Z</time>
      </trkpt>
      <trkpt lat="43.48924" lon="6.32894">
        <ele>184.6</ele>
        <time>2025-02-24T08:17:24Z</time>
      </trkpt>
      <trkpt lat="43.48934" lon="6.32894">
        <ele>185.3</ele>
        <time>2025-02-24T08:17:33Z</time>
      </trkpt>
      <trkpt lat="43.48944" lon="6.32893">
        <ele>185.4</ele>
        <time>2025-02-24T08:17:42Z</time>
      </trkpt>
      <trkpt lat="43.48953" lon="6.32891">
        <ele>186</ele>
        <time>2025-02-24T08:17:50Z</time>
      </trkpt>
      <trkpt lat="43.48963" lon="6.32888">
        <ele>186.4</ele>
        <time>2025-02-24T08:17:58Z</time>
      </trkpt>
      <trkpt lat="43.48972" lon="6.32885">
        <ele>187</ele>
        <time>2025-02-24T08:18:07Z</time>
      </trkpt>
      <trkpt lat="43.48982" lon="6.32884">
        <ele>186.8</ele>
        <time>2025-02-24T08:18:16Z</time>
      </trkpt>
      <trkpt lat="43.48991" lon="6.32883">
        <ele>187</ele>
        <time>2025-02-24T08:18:25Z</time>
      </trkpt>
      <trkpt lat="43.49" lon="6.32882">
        <ele>186.9</ele>
        <time>2025-02-24T08:18:35Z</time>
      </trkpt>
      <trkpt lat="43.4901" lon="6.32881">
        <ele>186.3</ele>
        <time>2025-02-24T08:18:44Z</time>
      </trkpt>
      <trkpt lat="43.49019" lon="6.32879">
        <ele>185.7</ele>
        <time>2025-02-24T08:18:53Z</time>
      </trkpt>
      <trkpt lat="43.49028" lon="6.32877">
        <ele>185.4</ele>
        <time>2025-02-24T08:19:03Z</time>
      </trkpt>
      <trkpt lat="43.49037" lon="6.32875">
        <ele>184.9</ele>
        <time>2025-02-24T08:19:12Z</time>
      </trkpt>
      <trkpt lat="43.49047" lon="6.32872">
        <ele>184.1</ele>
        <time>2025-02-24T08:19:22Z</time>
      </trkpt>
      <trkpt lat="43.49056" lon="6.32869">
        <ele>183.4</ele>
        <time>2025-02-24T08:19:31Z</time>
      </trkpt>
      <trkpt lat="43.49065" lon="6.32866">
        <ele>182.7</ele>
        <time>2025-02-24T08:19:40Z</time>
      </trkpt>
      <trkpt lat="43.49075" lon="6.32865">
        <ele>182</ele>
        <time>2025-02-24T08:19:57Z</time>
      </trkpt>
      <trkpt lat="43.49084" lon="6.32865">
        <ele>181.6</ele>
        <time>2025-02-24T08:20:07Z</time>
      </trkpt>
      <trkpt lat="43.49094" lon="6.32865">
        <ele>181.3</ele>
        <time>2025-02-24T08:20:16Z</time>
      </trkpt>
      <trkpt lat="43.49103" lon="6.32866">
        <ele>181.1</ele>
        <time>2025-02-24T08:20:26Z</time>
      </trkpt>
      <trkpt lat="43.49113" lon="6.32869">
        <ele>181.3</ele>
        <time>2025-02-24T08:20:35Z</time>
      </trkpt>
      <trkpt lat="43.49122" lon="6.32872">
        <ele>181.4</ele>
        <time>2025-02-24T08:20:44Z</time>
      </trkpt>
      <trkpt lat="43.49132" lon="6.32874">
        <ele>181.7</ele>
        <time>2025-02-24T08:20:53Z</time>
      </trkpt>
      <trkpt lat="43.49141" lon="6.32878">
        <ele>182</ele>
        <time>2025-02-24T08:21:03Z</time>
      </trkpt>
      <trkpt lat="43.4915" lon="6.32883">
        <ele>182.4</ele>
        <time>2025-02-24T08:21:15Z</time>
      </trkpt>
      <trkpt lat="43.49159" lon="6.32885">
        <ele>182.5</ele>
        <time>2025-02-24T08:21:23Z</time>
      </trkpt>
      <trkpt lat="43.49168" lon="6.32887">
        <ele>182.5</ele>
        <time>2025-02-24T08:21:33Z</time>
      </trkpt>
      <trkpt lat="43.49178" lon="6.32889">
        <ele>182.6</ele>
        <time>2025-02-24T08:21:43Z</time>
      </trkpt>
      <trkpt lat="43.49187" lon="6.3289">
        <ele>183</ele>
        <time>2025-02-24T08:21:50Z</time>
      </trkpt>
      <trkpt lat="43.49197" lon="6.3289">
        <ele>183.4</ele>
        <time>2025-02-24T08:21:58Z</time>
      </trkpt>
      <trkpt lat="43.49206" lon="6.3289">
        <ele>183.9</ele>
        <time>2025-02-24T08:22:06Z</time>
      </trkpt>
      <trkpt lat="43.49216" lon="6.3289">
        <ele>184.6</ele>
        <time>2025-02-24T08:22:15Z</time>
      </trkpt>
      <trkpt lat="43.49226" lon="6.32891">
        <ele>185.4</ele>
        <time>2025-02-24T08:22:25Z</time>
      </trkpt>
      <trkpt lat="43.49235" lon="6.32892">
        <ele>186.2</ele>
        <time>2025-02-24T08:22:35Z</time>
      </trkpt>
      <trkpt lat="43.49244" lon="6.32886">
        <ele>186.7</ele>
        <time>2025-02-24T08:22:48Z</time>
      </trkpt>
      <trkpt lat="43.4925" lon="6.32877">
        <ele>187</ele>
        <time>2025-02-24T08:23:03Z</time>
      </trkpt>
      <trkpt lat="43.49255" lon="6.32867">
        <ele>186.8</ele>
        <time>2025-02-24T08:30:01Z</time>
      </trkpt>
      <trkpt lat="43.49255" lon="6.32854">
        <ele>186.5</ele>
        <time>2025-02-24T08:30:28Z</time>
      </trkpt>
      <trkpt lat="43.49257" lon="6.32842">
        <ele>186.6</ele>
        <time>2025-02-24T08:30:40Z</time>
      </trkpt>
      <trkpt lat="43.49257" lon="6.3283">
        <ele>186.5</ele>
        <time>2025-02-24T08:30:50Z</time>
      </trkpt>
      <trkpt lat="43.49258" lon="6.32817">
        <ele>186.6</ele>
        <time>2025-02-24T08:31:00Z</time>
      </trkpt>
      <trkpt lat="43.49259" lon="6.32805">
        <ele>186.3</ele>
        <time>2025-02-24T08:31:10Z</time>
      </trkpt>
      <trkpt lat="43.49264" lon="6.32793">
        <ele>186.3</ele>
        <time>2025-02-24T08:31:20Z</time>
      </trkpt>
      <trkpt lat="43.49269" lon="6.32781">
        <ele>186.2</ele>
        <time>2025-02-24T08:31:31Z</time>
      </trkpt>
      <trkpt lat="43.49272" lon="6.32769">
        <ele>186.2</ele>
        <time>2025-02-24T08:31:41Z</time>
      </trkpt>
      <trkpt lat="43.49275" lon="6.32757">
        <ele>186.3</ele>
        <time>2025-02-24T08:31:52Z</time>
      </trkpt>
      <trkpt lat="43.4928" lon="6.32745">
        <ele>185.9</ele>
        <time>2025-02-24T08:32:03Z</time>
      </trkpt>
      <trkpt lat="43.49283" lon="6.32733">
        <ele>186.3</ele>
        <time>2025-02-24T08:32:13Z</time>
      </trkpt>
      <trkpt lat="43.49286" lon="6.32721">
        <ele>186.8</ele>
        <time>2025-02-24T08:32:23Z</time>
      </trkpt>
      <trkpt lat="43.4929" lon="6.3271">
        <ele>187.2</ele>
        <time>2025-02-24T08:32:34Z</time>
      </trkpt>
      <trkpt lat="43.49293" lon="6.32697">
        <ele>187.8</ele>
        <time>2025-02-24T08:32:44Z</time>
      </trkpt>
      <trkpt lat="43.49296" lon="6.32685">
        <ele>187.9</ele>
        <time>2025-02-24T08:32:53Z</time>
      </trkpt>
      <trkpt lat="43.49299" lon="6.32673">
        <ele>188.1</ele>
        <time>2025-02-24T08:33:03Z</time>
      </trkpt>
      <trkpt lat="43.49301" lon="6.3266">
        <ele>188.1</ele>
        <time>2025-02-24T08:33:13Z</time>
      </trkpt>
      <trkpt lat="43.49304" lon="6.32648">
        <ele>188.9</ele>
        <time>2025-02-24T08:33:23Z</time>
      </trkpt>
      <trkpt lat="43.49307" lon="6.32636">
        <ele>188.9</ele>
        <time>2025-02-24T08:33:33Z</time>
      </trkpt>
      <trkpt lat="43.4931" lon="6.32623">
        <ele>189.1</ele>
        <time>2025-02-24T08:33:44Z</time>
      </trkpt>
      <trkpt lat="43.49312" lon="6.3261">
        <ele>189.1</ele>
        <time>2025-02-24T08:33:57Z</time>
      </trkpt>
      <trkpt lat="43.49314" lon="6.32598">
        <ele>189.7</ele>
        <time>2025-02-24T08:34:07Z</time>
      </trkpt>
      <trkpt lat="43.49316" lon="6.32585">
        <ele>189.7</ele>
        <time>2025-02-24T08:34:17Z</time>
      </trkpt>
      <trkpt lat="43.4932" lon="6.32573">
        <ele>190.4</ele>
        <time>2025-02-24T08:34:28Z</time>
      </trkpt>
      <trkpt lat="43.49325" lon="6.32562">
        <ele>191</ele>
        <time>2025-02-24T08:34:39Z</time>
      </trkpt>
      <trkpt lat="43.49331" lon="6.32552">
        <ele>191.7</ele>
        <time>2025-02-24T08:34:50Z</time>
      </trkpt>
      <trkpt lat="43.49335" lon="6.3254">
        <ele>192.7</ele>
        <time>2025-02-24T08:35:03Z</time>
      </trkpt>
      <trkpt lat="43.49337" lon="6.32527">
        <ele>193</ele>
        <time>2025-02-24T08:35:14Z</time>
      </trkpt>
      <trkpt lat="43.49337" lon="6.32514">
        <ele>193.6</ele>
        <time>2025-02-24T08:35:24Z</time>
      </trkpt>
      <trkpt lat="43.49337" lon="6.32501">
        <ele>194.3</ele>
        <time>2025-02-24T08:35:35Z</time>
      </trkpt>
      <trkpt lat="43.49338" lon="6.32488">
        <ele>195.5</ele>
        <time>2025-02-24T08:35:47Z</time>
      </trkpt>
      <trkpt lat="43.49339" lon="6.32475">
        <ele>195.5</ele>
        <time>2025-02-24T08:35:58Z</time>
      </trkpt>
      <trkpt lat="43.49339" lon="6.32462">
        <ele>195.6</ele>
        <time>2025-02-24T08:36:08Z</time>
      </trkpt>
      <trkpt lat="43.4934" lon="6.3245">
        <ele>196.4</ele>
        <time>2025-02-24T08:36:19Z</time>
      </trkpt>
      <trkpt lat="43.4934" lon="6.32436">
        <ele>197.1</ele>
        <time>2025-02-24T08:36:30Z</time>
      </trkpt>
      <trkpt lat="43.49341" lon="6.32423">
        <ele>197.9</ele>
        <time>2025-02-24T08:36:46Z</time>
      </trkpt>
      <trkpt lat="43.49341" lon="6.3241">
        <ele>198.4</ele>
        <time>2025-02-24T08:36:58Z</time>
      </trkpt>
      <trkpt lat="43.49342" lon="6.32398">
        <ele>199.2</ele>
        <time>2025-02-24T08:37:08Z</time>
      </trkpt>
      <trkpt lat="43.49345" lon="6.32385">
        <ele>199.6</ele>
        <time>2025-02-24T08:37:19Z</time>
      </trkpt>
      <trkpt lat="43.49348" lon="6.32373">
        <ele>200.3</ele>
        <time>2025-02-24T08:37:29Z</time>
      </trkpt>
      <trkpt lat="43.49352" lon="6.32361">
        <ele>200.4</ele>
        <time>2025-02-24T08:37:40Z</time>
      </trkpt>
      <trkpt lat="43.49357" lon="6.32349">
        <ele>200.5</ele>
        <time>2025-02-24T08:37:51Z</time>
      </trkpt>
      <trkpt lat="43.49362" lon="6.32338">
        <ele>201.5</ele>
        <time>2025-02-24T08:38:02Z</time>
      </trkpt>
      <trkpt lat="43.49367" lon="6.32328">
        <ele>201.9</ele>
        <time>2025-02-24T08:38:12Z</time>
      </trkpt>
      <trkpt lat="43.49373" lon="6.32317">
        <ele>202.4</ele>
        <time>2025-02-24T08:38:23Z</time>
      </trkpt>
      <trkpt lat="43.49377" lon="6.32305">
        <ele>203.1</ele>
        <time>2025-02-24T08:38:36Z</time>
      </trkpt>
      <trkpt lat="43.49382" lon="6.32294">
        <ele>203.3</ele>
        <time>2025-02-24T08:38:46Z</time>
      </trkpt>
      <trkpt lat="43.49386" lon="6.32282">
        <ele>203.6</ele>
        <time>2025-02-24T08:38:58Z</time>
      </trkpt>
      <trkpt lat="43.49387" lon="6.32269">
        <ele>204.5</ele>
        <time>2025-02-24T08:39:10Z</time>
      </trkpt>
      <trkpt lat="43.49385" lon="6.32256">
        <ele>205.2</ele>
        <time>2025-02-24T08:39:22Z</time>
      </trkpt>
      <trkpt lat="43.49382" lon="6.32244">
        <ele>205.5</ele>
        <time>2025-02-24T08:39:34Z</time>
      </trkpt>
      <trkpt lat="43.49375" lon="6.32235">
        <ele>206.3</ele>
        <time>2025-02-24T08:39:44Z</time>
      </trkpt>
      <trkpt lat="43.4937" lon="6.32225">
        <ele>207.2</ele>
        <time>2025-02-24T08:39:56Z</time>
      </trkpt>
      <trkpt lat="43.49363" lon="6.32217">
        <ele>208.2</ele>
        <time>2025-02-24T08:40:09Z</time>
      </trkpt>
      <trkpt lat="43.49359" lon="6.32205">
        <ele>209.7</ele>
        <time>2025-02-24T08:40:26Z</time>
      </trkpt>
      <trkpt lat="43.49368" lon="6.322">
        <ele>210.6</ele>
        <time>2025-02-24T08:40:43Z</time>
      </trkpt>
      <trkpt lat="43.49376" lon="6.32205">
        <ele>210.2</ele>
        <time>2025-02-24T08:40:55Z</time>
      </trkpt>
      <trkpt lat="43.49386" lon="6.32204">
        <ele>211.2</ele>
        <time>2025-02-24T08:41:13Z</time>
      </trkpt>
      <trkpt lat="43.49376" lon="6.32205">
        <ele>211.1</ele>
        <time>2025-02-24T08:42:12Z</time>
      </trkpt>
      <trkpt lat="43.49369" lon="6.32198">
        <ele>210.6</ele>
        <time>2025-02-24T08:42:25Z</time>
      </trkpt>
      <trkpt lat="43.49364" lon="6.32187">
        <ele>211</ele>
        <time>2025-02-24T08:42:34Z</time>
      </trkpt>
      <trkpt lat="43.49359" lon="6.32176">
        <ele>211.3</ele>
        <time>2025-02-24T08:42:43Z</time>
      </trkpt>
      <trkpt lat="43.49354" lon="6.32165">
        <ele>212.2</ele>
        <time>2025-02-24T08:42:53Z</time>
      </trkpt>
      <trkpt lat="43.4935" lon="6.32153">
        <ele>212.8</ele>
        <time>2025-02-24T08:43:04Z</time>
      </trkpt>
      <trkpt lat="43.49346" lon="6.32141">
        <ele>213.2</ele>
        <time>2025-02-24T08:43:13Z</time>
      </trkpt>
      <trkpt lat="43.49342" lon="6.32129">
        <ele>213.9</ele>
        <time>2025-02-24T08:43:23Z</time>
      </trkpt>
      <trkpt lat="43.49338" lon="6.32116">
        <ele>214.6</ele>
        <time>2025-02-24T08:43:32Z</time>
      </trkpt>
      <trkpt lat="43.49335" lon="6.32104">
        <ele>215.1</ele>
        <time>2025-02-24T08:43:41Z</time>
      </trkpt>
      <trkpt lat="43.49332" lon="6.32092">
        <ele>215.9</ele>
        <time>2025-02-24T08:43:50Z</time>
      </trkpt>
      <trkpt lat="43.49331" lon="6.32079">
        <ele>217</ele>
        <time>2025-02-24T08:44:03Z</time>
      </trkpt>
      <trkpt lat="43.49333" lon="6.32066">
        <ele>218</ele>
        <time>2025-02-24T08:44:14Z</time>
      </trkpt>
      <trkpt lat="43.49336" lon="6.32054">
        <ele>219</ele>
        <time>2025-02-24T08:44:25Z</time>
      </trkpt>
      <trkpt lat="43.49338" lon="6.32041">
        <ele>219.7</ele>
        <time>2025-02-24T08:44:36Z</time>
      </trkpt>
      <trkpt lat="43.49339" lon="6.32029">
        <ele>221</ele>
        <time>2025-02-24T08:44:48Z</time>
      </trkpt>
      <trkpt lat="43.4934" lon="6.32016">
        <ele>221.2</ele>
        <time>2025-02-24T08:44:59Z</time>
      </trkpt>
      <trkpt lat="43.49339" lon="6.32003">
        <ele>222.1</ele>
        <time>2025-02-24T08:45:11Z</time>
      </trkpt>
      <trkpt lat="43.49341" lon="6.3199">
        <ele>222.3</ele>
        <time>2025-02-24T08:45:24Z</time>
      </trkpt>
      <trkpt lat="43.4934" lon="6.31977">
        <ele>222.8</ele>
        <time>2025-02-24T08:45:36Z</time>
      </trkpt>
      <trkpt lat="43.49342" lon="6.31965">
        <ele>223.3</ele>
        <time>2025-02-24T08:45:53Z</time>
      </trkpt>
      <trkpt lat="43.49343" lon="6.31953">
        <ele>223.8</ele>
        <time>2025-02-24T08:46:03Z</time>
      </trkpt>
      <trkpt lat="43.49345" lon="6.31941">
        <ele>224.1</ele>
        <time>2025-02-24T08:46:15Z</time>
      </trkpt>
      <trkpt lat="43.49346" lon="6.31928">
        <ele>224.8</ele>
        <time>2025-02-24T08:46:27Z</time>
      </trkpt>
      <trkpt lat="43.49348" lon="6.31915">
        <ele>225.4</ele>
        <time>2025-02-24T08:46:38Z</time>
      </trkpt>
      <trkpt lat="43.49351" lon="6.31902">
        <ele>226.4</ele>
        <time>2025-02-24T08:46:48Z</time>
      </trkpt>
      <trkpt lat="43.49348" lon="6.3189">
        <ele>226.7</ele>
        <time>2025-02-24T08:47:01Z</time>
      </trkpt>
      <trkpt lat="43.49342" lon="6.3188">
        <ele>227.9</ele>
        <time>2025-02-24T08:47:15Z</time>
      </trkpt>
      <trkpt lat="43.49338" lon="6.31868">
        <ele>229.1</ele>
        <time>2025-02-24T08:47:31Z</time>
      </trkpt>
      <trkpt lat="43.49333" lon="6.31857">
        <ele>230.2</ele>
        <time>2025-02-24T08:47:46Z</time>
      </trkpt>
      <trkpt lat="43.49329" lon="6.31845">
        <ele>231.5</ele>
        <time>2025-02-24T08:48:00Z</time>
      </trkpt>
      <trkpt lat="43.49326" lon="6.31833">
        <ele>232.7</ele>
        <time>2025-02-24T08:48:16Z</time>
      </trkpt>
      <trkpt lat="43.49321" lon="6.31822">
        <ele>233.9</ele>
        <time>2025-02-24T08:48:30Z</time>
      </trkpt>
      <trkpt lat="43.49316" lon="6.31811">
        <ele>234.8</ele>
        <time>2025-02-24T08:48:45Z</time>
      </trkpt>
      <trkpt lat="43.4931" lon="6.31801">
        <ele>235.6</ele>
        <time>2025-02-24T08:48:58Z</time>
      </trkpt>
      <trkpt lat="43.49306" lon="6.31789">
        <ele>236.5</ele>
        <time>2025-02-24T08:50:47Z</time>
      </trkpt>
      <trkpt lat="43.49301" lon="6.31779">
        <ele>237.1</ele>
        <time>2025-02-24T08:55:21Z</time>
      </trkpt>
      <trkpt lat="43.49294" lon="6.31769">
        <ele>237.6</ele>
        <time>2025-02-24T08:55:35Z</time>
      </trkpt>
      <trkpt lat="43.49288" lon="6.31758">
        <ele>237.8</ele>
        <time>2025-02-24T08:55:48Z</time>
      </trkpt>
      <trkpt lat="43.49283" lon="6.31748">
        <ele>238</ele>
        <time>2025-02-24T08:56:01Z</time>
      </trkpt>
      <trkpt lat="43.49277" lon="6.31737">
        <ele>238.1</ele>
        <time>2025-02-24T08:56:12Z</time>
      </trkpt>
      <trkpt lat="43.49273" lon="6.31725">
        <ele>238.5</ele>
        <time>2025-02-24T08:56:24Z</time>
      </trkpt>
      <trkpt lat="43.49269" lon="6.31714">
        <ele>238.7</ele>
        <time>2025-02-24T08:56:36Z</time>
      </trkpt>
      <trkpt lat="43.49265" lon="6.31702">
        <ele>239.4</ele>
        <time>2025-02-24T08:56:49Z</time>
      </trkpt>
      <trkpt lat="43.49262" lon="6.3169">
        <ele>240.2</ele>
        <time>2025-02-24T08:57:08Z</time>
      </trkpt>
      <trkpt lat="43.49258" lon="6.31679">
        <ele>240.7</ele>
        <time>2025-02-24T08:57:19Z</time>
      </trkpt>
      <trkpt lat="43.49256" lon="6.31666">
        <ele>242.1</ele>
        <time>2025-02-24T08:57:32Z</time>
      </trkpt>
      <trkpt lat="43.49253" lon="6.31653">
        <ele>242.9</ele>
        <time>2025-02-24T08:57:44Z</time>
      </trkpt>
      <trkpt lat="43.4925" lon="6.31641">
        <ele>244.3</ele>
        <time>2025-02-24T08:57:58Z</time>
      </trkpt>
      <trkpt lat="43.49248" lon="6.31629">
        <ele>245.9</ele>
        <time>2025-02-24T08:58:12Z</time>
      </trkpt>
      <trkpt lat="43.49246" lon="6.31616">
        <ele>247.4</ele>
        <time>2025-02-24T08:58:26Z</time>
      </trkpt>
      <trkpt lat="43.49242" lon="6.31605">
        <ele>248.6</ele>
        <time>2025-02-24T08:58:40Z</time>
      </trkpt>
      <trkpt lat="43.49238" lon="6.31593">
        <ele>250.2</ele>
        <time>2025-02-24T08:58:55Z</time>
      </trkpt>
      <trkpt lat="43.4923" lon="6.31585">
        <ele>252.1</ele>
        <time>2025-02-24T08:59:10Z</time>
      </trkpt>
      <trkpt lat="43.49222" lon="6.31579">
        <ele>253.7</ele>
        <time>2025-02-24T08:59:20Z</time>
      </trkpt>
      <trkpt lat="43.49214" lon="6.31572">
        <ele>254.7</ele>
        <time>2025-02-24T08:59:31Z</time>
      </trkpt>
      <trkpt lat="43.49209" lon="6.31561">
        <ele>256.1</ele>
        <time>2025-02-24T08:59:45Z</time>
      </trkpt>
      <trkpt lat="43.49205" lon="6.31549">
        <ele>256.7</ele>
        <time>2025-02-24T08:59:57Z</time>
      </trkpt>
      <trkpt lat="43.49203" lon="6.31536">
        <ele>257.1</ele>
        <time>2025-02-24T09:00:09Z</time>
      </trkpt>
      <trkpt lat="43.49198" lon="6.31525">
        <ele>257.9</ele>
        <time>2025-02-24T09:00:21Z</time>
      </trkpt>
      <trkpt lat="43.49192" lon="6.31515">
        <ele>258.7</ele>
        <time>2025-02-24T09:00:35Z</time>
      </trkpt>
      <trkpt lat="43.49189" lon="6.31503">
        <ele>259.2</ele>
        <time>2025-02-24T09:00:47Z</time>
      </trkpt>
      <trkpt lat="43.49187" lon="6.31491">
        <ele>259.8</ele>
        <time>2025-02-24T09:00:59Z</time>
      </trkpt>
      <trkpt lat="43.49185" lon="6.31478">
        <ele>260.7</ele>
        <time>2025-02-24T09:01:09Z</time>
      </trkpt>
      <trkpt lat="43.49183" lon="6.31466">
        <ele>261.4</ele>
        <time>2025-02-24T09:01:19Z</time>
      </trkpt>
      <trkpt lat="43.49185" lon="6.31453">
        <ele>262.5</ele>
        <time>2025-02-24T09:01:30Z</time>
      </trkpt>
      <trkpt lat="43.49188" lon="6.31442">
        <ele>264.4</ele>
        <time>2025-02-24T09:01:42Z</time>
      </trkpt>
      <trkpt lat="43.49192" lon="6.31429">
        <ele>266.4</ele>
        <time>2025-02-24T09:01:57Z</time>
      </trkpt>
      <trkpt lat="43.49192" lon="6.31416">
        <ele>268.2</ele>
        <time>2025-02-24T09:02:11Z</time>
      </trkpt>
      <trkpt lat="43.4919" lon="6.31403">
        <ele>271.1</ele>
        <time>2025-02-24T09:02:28Z</time>
      </trkpt>
      <trkpt lat="43.49186" lon="6.31391">
        <ele>273.2</ele>
        <time>2025-02-24T09:03:02Z</time>
      </trkpt>
      <trkpt lat="43.49188" lon="6.31379">
        <ele>274.5</ele>
        <time>2025-02-24T09:03:17Z</time>
      </trkpt>
      <trkpt lat="43.49186" lon="6.31366">
        <ele>276.5</ele>
        <time>2025-02-24T09:03:30Z</time>
      </trkpt>
      <trkpt lat="43.49183" lon="6.31355">
        <ele>278</ele>
        <time>2025-02-24T09:03:43Z</time>
      </trkpt>
      <trkpt lat="43.49181" lon="6.31342">
        <ele>279.5</ele>
        <time>2025-02-24T09:03:58Z</time>
      </trkpt>
      <trkpt lat="43.49179" lon="6.3133">
        <ele>280.5</ele>
        <time>2025-02-24T09:04:12Z</time>
      </trkpt>
      <trkpt lat="43.4918" lon="6.31318">
        <ele>281.3</ele>
        <time>2025-02-24T09:04:40Z</time>
      </trkpt>
      <trkpt lat="43.49178" lon="6.31305">
        <ele>282</ele>
        <time>2025-02-24T09:04:51Z</time>
      </trkpt>
      <trkpt lat="43.49174" lon="6.31294">
        <ele>282.6</ele>
        <time>2025-02-24T09:05:03Z</time>
      </trkpt>
      <trkpt lat="43.4917" lon="6.31282">
        <ele>283.6</ele>
        <time>2025-02-24T09:05:24Z</time>
      </trkpt>
      <trkpt lat="43.49167" lon="6.3127">
        <ele>284.1</ele>
        <time>2025-02-24T09:08:22Z</time>
      </trkpt>
      <trkpt lat="43.49159" lon="6.31277">
        <ele>284.4</ele>
        <time>2025-02-24T09:13:52Z</time>
      </trkpt>
      <trkpt lat="43.49151" lon="6.31284">
        <ele>284.3</ele>
        <time>2025-02-24T09:14:02Z</time>
      </trkpt>
      <trkpt lat="43.49143" lon="6.3129">
        <ele>284.7</ele>
        <time>2025-02-24T09:14:12Z</time>
      </trkpt>
      <trkpt lat="43.49135" lon="6.31295">
        <ele>285.3</ele>
        <time>2025-02-24T09:14:26Z</time>
      </trkpt>
      <trkpt lat="43.49126" lon="6.313">
        <ele>285.6</ele>
        <time>2025-02-24T09:14:40Z</time>
      </trkpt>
      <trkpt lat="43.49118" lon="6.31306">
        <ele>286.1</ele>
        <time>2025-02-24T09:14:55Z</time>
      </trkpt>
      <trkpt lat="43.49111" lon="6.31316">
        <ele>286.2</ele>
        <time>2025-02-24T09:15:15Z</time>
      </trkpt>
      <trkpt lat="43.49103" lon="6.31322">
        <ele>286.7</ele>
        <time>2025-02-24T09:15:28Z</time>
      </trkpt>
      <trkpt lat="43.49095" lon="6.31328">
        <ele>286.9</ele>
        <time>2025-02-24T09:15:39Z</time>
      </trkpt>
      <trkpt lat="43.49085" lon="6.31332">
        <ele>286.7</ele>
        <time>2025-02-24T09:15:50Z</time>
      </trkpt>
      <trkpt lat="43.49076" lon="6.31337">
        <ele>287.2</ele>
        <time>2025-02-24T09:15:59Z</time>
      </trkpt>
      <trkpt lat="43.49066" lon="6.31339">
        <ele>287.5</ele>
        <time>2025-02-24T09:16:08Z</time>
      </trkpt>
      <trkpt lat="43.49058" lon="6.31344">
        <ele>287.7</ele>
        <time>2025-02-24T09:16:19Z</time>
      </trkpt>
      <trkpt lat="43.49049" lon="6.31348">
        <ele>287.7</ele>
        <time>2025-02-24T09:16:29Z</time>
      </trkpt>
      <trkpt lat="43.4904" lon="6.31352">
        <ele>288.5</ele>
        <time>2025-02-24T09:16:39Z</time>
      </trkpt>
      <trkpt lat="43.49031" lon="6.31358">
        <ele>288</ele>
        <time>2025-02-24T09:16:50Z</time>
      </trkpt>
      <trkpt lat="43.49022" lon="6.31363">
        <ele>288</ele>
        <time>2025-02-24T09:16:59Z</time>
      </trkpt>
      <trkpt lat="43.49012" lon="6.31367">
        <ele>288.2</ele>
        <time>2025-02-24T09:17:09Z</time>
      </trkpt>
      <trkpt lat="43.49004" lon="6.31372">
        <ele>288.3</ele>
        <time>2025-02-24T09:17:19Z</time>
      </trkpt>
      <trkpt lat="43.48995" lon="6.31377">
        <ele>289</ele>
        <time>2025-02-24T09:17:29Z</time>
      </trkpt>
      <trkpt lat="43.48986" lon="6.31381">
        <ele>289.5</ele>
        <time>2025-02-24T09:17:40Z</time>
      </trkpt>
      <trkpt lat="43.48977" lon="6.31383">
        <ele>290.1</ele>
        <time>2025-02-24T09:17:54Z</time>
      </trkpt>
      <trkpt lat="43.4897" lon="6.31392">
        <ele>290.1</ele>
        <time>2025-02-24T09:18:04Z</time>
      </trkpt>
      <trkpt lat="43.48968" lon="6.31404">
        <ele>290.4</ele>
        <time>2025-02-24T09:18:14Z</time>
      </trkpt>
      <trkpt lat="43.4896" lon="6.31413">
        <ele>290.6</ele>
        <time>2025-02-24T09:18:29Z</time>
      </trkpt>
      <trkpt lat="43.48952" lon="6.3142">
        <ele>290.8</ele>
        <time>2025-02-24T09:18:39Z</time>
      </trkpt>
      <trkpt lat="43.48944" lon="6.31426">
        <ele>291.3</ele>
        <time>2025-02-24T09:18:49Z</time>
      </trkpt>
      <trkpt lat="43.48936" lon="6.31432">
        <ele>291.1</ele>
        <time>2025-02-24T09:18:59Z</time>
      </trkpt>
      <trkpt lat="43.48927" lon="6.31435">
        <ele>291.8</ele>
        <time>2025-02-24T09:19:07Z</time>
      </trkpt>
      <trkpt lat="43.48918" lon="6.31441">
        <ele>291</ele>
        <time>2025-02-24T09:19:19Z</time>
      </trkpt>
      <trkpt lat="43.48911" lon="6.3145">
        <ele>290.4</ele>
        <time>2025-02-24T09:19:42Z</time>
      </trkpt>
      <trkpt lat="43.48903" lon="6.31457">
        <ele>290</ele>
        <time>2025-02-24T09:19:51Z</time>
      </trkpt>
      <trkpt lat="43.48895" lon="6.31464">
        <ele>289.6</ele>
        <time>2025-02-24T09:20:01Z</time>
      </trkpt>
      <trkpt lat="43.48886" lon="6.31471">
        <ele>289.5</ele>
        <time>2025-02-24T09:20:26Z</time>
      </trkpt>
      <trkpt lat="43.48878" lon="6.31477">
        <ele>289.2</ele>
        <time>2025-02-24T09:20:37Z</time>
      </trkpt>
      <trkpt lat="43.48871" lon="6.31484">
        <ele>289</ele>
        <time>2025-02-24T09:20:45Z</time>
      </trkpt>
      <trkpt lat="43.48863" lon="6.31492">
        <ele>288.7</ele>
        <time>2025-02-24T09:20:53Z</time>
      </trkpt>
      <trkpt lat="43.48855" lon="6.31496">
        <ele>288.2</ele>
        <time>2025-02-24T09:21:00Z</time>
      </trkpt>
      <trkpt lat="43.48846" lon="6.31502">
        <ele>287.7</ele>
        <time>2025-02-24T09:21:10Z</time>
      </trkpt>
      <trkpt lat="43.48838" lon="6.31508">
        <ele>287.6</ele>
        <time>2025-02-24T09:21:22Z</time>
      </trkpt>
      <trkpt lat="43.48829" lon="6.31514">
        <ele>286.8</ele>
        <time>2025-02-24T09:21:36Z</time>
      </trkpt>
      <trkpt lat="43.48821" lon="6.31519">
        <ele>286.5</ele>
        <time>2025-02-24T09:21:46Z</time>
      </trkpt>
      <trkpt lat="43.4881" lon="6.31523">
        <ele>286</ele>
        <time>2025-02-24T09:21:54Z</time>
      </trkpt>
      <trkpt lat="43.48801" lon="6.31528">
        <ele>285.3</ele>
        <time>2025-02-24T09:22:03Z</time>
      </trkpt>
      <trkpt lat="43.48792" lon="6.31532">
        <ele>284.8</ele>
        <time>2025-02-24T09:22:12Z</time>
      </trkpt>
      <trkpt lat="43.48783" lon="6.31534">
        <ele>284.3</ele>
        <time>2025-02-24T09:22:22Z</time>
      </trkpt>
      <trkpt lat="43.48775" lon="6.31539">
        <ele>283.7</ele>
        <time>2025-02-24T09:22:32Z</time>
      </trkpt>
      <trkpt lat="43.48766" lon="6.31544">
        <ele>283</ele>
        <time>2025-02-24T09:22:46Z</time>
      </trkpt>
      <trkpt lat="43.48758" lon="6.31549">
        <ele>282.7</ele>
        <time>2025-02-24T09:23:12Z</time>
      </trkpt>
      <trkpt lat="43.48749" lon="6.31546">
        <ele>282.5</ele>
        <time>2025-02-24T09:23:59Z</time>
      </trkpt>
      <trkpt lat="43.48739" lon="6.31545">
        <ele>282.3</ele>
        <time>2025-02-24T09:24:10Z</time>
      </trkpt>
      <trkpt lat="43.4873" lon="6.31545">
        <ele>283</ele>
        <time>2025-02-24T09:24:20Z</time>
      </trkpt>
      <trkpt lat="43.48721" lon="6.31545">
        <ele>283.5</ele>
        <time>2025-02-24T09:24:34Z</time>
      </trkpt>
      <trkpt lat="43.48711" lon="6.31543">
        <ele>284.7</ele>
        <time>2025-02-24T09:24:47Z</time>
      </trkpt>
      <trkpt lat="43.48702" lon="6.31544">
        <ele>286.5</ele>
        <time>2025-02-24T09:25:01Z</time>
      </trkpt>
      <trkpt lat="43.48693" lon="6.31548">
        <ele>288.2</ele>
        <time>2025-02-24T09:25:15Z</time>
      </trkpt>
      <trkpt lat="43.48685" lon="6.31553">
        <ele>289.5</ele>
        <time>2025-02-24T09:25:28Z</time>
      </trkpt>
      <trkpt lat="43.48676" lon="6.3156">
        <ele>291.1</ele>
        <time>2025-02-24T09:25:42Z</time>
      </trkpt>
      <trkpt lat="43.48667" lon="6.31563">
        <ele>292.5</ele>
        <time>2025-02-24T09:25:57Z</time>
      </trkpt>
      <trkpt lat="43.48659" lon="6.31568">
        <ele>293.4</ele>
        <time>2025-02-24T09:26:10Z</time>
      </trkpt>
      <trkpt lat="43.4865" lon="6.31574">
        <ele>294</ele>
        <time>2025-02-24T09:26:22Z</time>
      </trkpt>
      <trkpt lat="43.48642" lon="6.31581">
        <ele>295</ele>
        <time>2025-02-24T09:26:33Z</time>
      </trkpt>
      <trkpt lat="43.48634" lon="6.31589">
        <ele>295.5</ele>
        <time>2025-02-24T09:26:46Z</time>
      </trkpt>
      <trkpt lat="43.48629" lon="6.31599">
        <ele>296</ele>
        <time>2025-02-24T09:26:58Z</time>
      </trkpt>
      <trkpt lat="43.48624" lon="6.3161">
        <ele>296.1</ele>
        <time>2025-02-24T09:27:09Z</time>
      </trkpt>
      <trkpt lat="43.48618" lon="6.3162">
        <ele>296.1</ele>
        <time>2025-02-24T09:27:22Z</time>
      </trkpt>
      <trkpt lat="43.48613" lon="6.31631">
        <ele>296.1</ele>
        <time>2025-02-24T09:27:36Z</time>
      </trkpt>
      <trkpt lat="43.48606" lon="6.31639">
        <ele>296.2</ele>
        <time>2025-02-24T09:27:49Z</time>
      </trkpt>
      <trkpt lat="43.486" lon="6.31649">
        <ele>295.9</ele>
        <time>2025-02-24T09:28:00Z</time>
      </trkpt>
      <trkpt lat="43.48594" lon="6.31658">
        <ele>295.4</ele>
        <time>2025-02-24T09:28:14Z</time>
      </trkpt>
      <trkpt lat="43.48587" lon="6.31668">
        <ele>294.8</ele>
        <time>2025-02-24T09:28:27Z</time>
      </trkpt>
      <trkpt lat="43.4858" lon="6.31676">
        <ele>294.4</ele>
        <time>2025-02-24T09:28:40Z</time>
      </trkpt>
      <trkpt lat="43.48574" lon="6.31686">
        <ele>293.8</ele>
        <time>2025-02-24T09:28:53Z</time>
      </trkpt>
      <trkpt lat="43.48569" lon="6.31697">
        <ele>293.1</ele>
        <time>2025-02-24T09:29:08Z</time>
      </trkpt>
      <trkpt lat="43.48566" lon="6.31709">
        <ele>292.3</ele>
        <time>2025-02-24T09:29:22Z</time>
      </trkpt>
      <trkpt lat="43.48566" lon="6.31721">
        <ele>291.1</ele>
        <time>2025-02-24T09:30:07Z</time>
      </trkpt>
      <trkpt lat="43.48557" lon="6.31727">
        <ele>290.7</ele>
        <time>2025-02-24T09:31:18Z</time>
      </trkpt>
      <trkpt lat="43.48556" lon="6.3174">
        <ele>290.1</ele>
        <time>2025-02-24T09:31:35Z</time>
      </trkpt>
      <trkpt lat="43.48555" lon="6.31752">
        <ele>289.8</ele>
        <time>2025-02-24T09:31:48Z</time>
      </trkpt>
      <trkpt lat="43.4856" lon="6.31763">
        <ele>289.2</ele>
        <time>2025-02-24T09:32:04Z</time>
      </trkpt>
      <trkpt lat="43.48561" lon="6.31776">
        <ele>288.3</ele>
        <time>2025-02-24T09:32:21Z</time>
      </trkpt>
      <trkpt lat="43.48562" lon="6.31789">
        <ele>288.4</ele>
        <time>2025-02-24T09:32:39Z</time>
      </trkpt>
      <trkpt lat="43.48558" lon="6.318">
        <ele>288.5</ele>
        <time>2025-02-24T09:32:53Z</time>
      </trkpt>
      <trkpt lat="43.48554" lon="6.31812">
        <ele>288.3</ele>
        <time>2025-02-24T09:33:08Z</time>
      </trkpt>
      <trkpt lat="43.48547" lon="6.3182">
        <ele>289.2</ele>
        <time>2025-02-24T09:33:21Z</time>
      </trkpt>
      <trkpt lat="43.48541" lon="6.3183">
        <ele>289.6</ele>
        <time>2025-02-24T09:33:39Z</time>
      </trkpt>
      <trkpt lat="43.48536" lon="6.31841">
        <ele>290.4</ele>
        <time>2025-02-24T09:33:55Z</time>
      </trkpt>
      <trkpt lat="43.48538" lon="6.31854">
        <ele>290.6</ele>
        <time>2025-02-24T09:34:13Z</time>
      </trkpt>
      <trkpt lat="43.48542" lon="6.31865">
        <ele>291.5</ele>
        <time>2025-02-24T09:34:29Z</time>
      </trkpt>
      <trkpt lat="43.48546" lon="6.31877">
        <ele>292.3</ele>
        <time>2025-02-24T09:34:38Z</time>
      </trkpt>
      <trkpt lat="43.48553" lon="6.31885">
        <ele>292.5</ele>
        <time>2025-02-24T09:34:54Z</time>
      </trkpt>
      <trkpt lat="43.48554" lon="6.31897">
        <ele>292.5</ele>
        <time>2025-02-24T09:35:07Z</time>
      </trkpt>
      <trkpt lat="43.48557" lon="6.31909">
        <ele>292.6</ele>
        <time>2025-02-24T09:35:20Z</time>
      </trkpt>
      <trkpt lat="43.48561" lon="6.31921">
        <ele>292.9</ele>
        <time>2025-02-24T09:35:36Z</time>
      </trkpt>
      <trkpt lat="43.48559" lon="6.31934">
        <ele>293.4</ele>
        <time>2025-02-24T09:35:49Z</time>
      </trkpt>
      <trkpt lat="43.48552" lon="6.31943">
        <ele>294</ele>
        <time>2025-02-24T09:36:04Z</time>
      </trkpt>
      <trkpt lat="43.4856" lon="6.31938">
        <ele>293.6</ele>
        <time>2025-02-24T09:42:31Z</time>
      </trkpt>
      <trkpt lat="43.48561" lon="6.31925">
        <ele>292.8</ele>
        <time>2025-02-24T09:42:52Z</time>
      </trkpt>
      <trkpt lat="43.4856" lon="6.31912">
        <ele>292.6</ele>
        <time>2025-02-24T09:43:07Z</time>
      </trkpt>
      <trkpt lat="43.48556" lon="6.31901">
        <ele>292.4</ele>
        <time>2025-02-24T09:43:19Z</time>
      </trkpt>
      <trkpt lat="43.48552" lon="6.31889">
        <ele>292.2</ele>
        <time>2025-02-24T09:43:32Z</time>
      </trkpt>
      <trkpt lat="43.48547" lon="6.31878">
        <ele>292</ele>
        <time>2025-02-24T09:43:45Z</time>
      </trkpt>
      <trkpt lat="43.48544" lon="6.31865">
        <ele>291.3</ele>
        <time>2025-02-24T09:43:56Z</time>
      </trkpt>
      <trkpt lat="43.48542" lon="6.31853">
        <ele>290.9</ele>
        <time>2025-02-24T09:44:09Z</time>
      </trkpt>
      <trkpt lat="43.48539" lon="6.31841">
        <ele>290.1</ele>
        <time>2025-02-24T09:45:11Z</time>
      </trkpt>
      <trkpt lat="43.4854" lon="6.31828">
        <ele>289.5</ele>
        <time>2025-02-24T09:45:26Z</time>
      </trkpt>
      <trkpt lat="43.48545" lon="6.31817">
        <ele>288.7</ele>
        <time>2025-02-24T09:45:40Z</time>
      </trkpt>
      <trkpt lat="43.4855" lon="6.31805">
        <ele>288.2</ele>
        <time>2025-02-24T09:45:52Z</time>
      </trkpt>
      <trkpt lat="43.48557" lon="6.31796">
        <ele>287.6</ele>
        <time>2025-02-24T09:46:04Z</time>
      </trkpt>
      <trkpt lat="43.48556" lon="6.31784">
        <ele>287.8</ele>
        <time>2025-02-24T09:46:17Z</time>
      </trkpt>
      <trkpt lat="43.48555" lon="6.31771">
        <ele>288.1</ele>
        <time>2025-02-24T09:46:30Z</time>
      </trkpt>
      <trkpt lat="43.48553" lon="6.31759">
        <ele>287.9</ele>
        <time>2025-02-24T09:46:42Z</time>
      </trkpt>
      <trkpt lat="43.48556" lon="6.31746">
        <ele>288.5</ele>
        <time>2025-02-24T09:46:51Z</time>
      </trkpt>
      <trkpt lat="43.48547" lon="6.31743">
        <ele>288.5</ele>
        <time>2025-02-24T09:47:21Z</time>
      </trkpt>
      <trkpt lat="43.48541" lon="6.31752">
        <ele>287.7</ele>
        <time>2025-02-24T09:47:37Z</time>
      </trkpt>
      <trkpt lat="43.48534" lon="6.31761">
        <ele>286.9</ele>
        <time>2025-02-24T09:47:59Z</time>
      </trkpt>
      <trkpt lat="43.48528" lon="6.31771">
        <ele>286.5</ele>
        <time>2025-02-24T09:48:12Z</time>
      </trkpt>
      <trkpt lat="43.48521" lon="6.31778">
        <ele>285.9</ele>
        <time>2025-02-24T09:48:24Z</time>
      </trkpt>
      <trkpt lat="43.48513" lon="6.31786">
        <ele>285.9</ele>
        <time>2025-02-24T09:48:35Z</time>
      </trkpt>
      <trkpt lat="43.48507" lon="6.31795">
        <ele>285.2</ele>
        <time>2025-02-24T09:48:46Z</time>
      </trkpt>
      <trkpt lat="43.48501" lon="6.31805">
        <ele>284.2</ele>
        <time>2025-02-24T09:48:58Z</time>
      </trkpt>
      <trkpt lat="43.48494" lon="6.31815">
        <ele>283.6</ele>
        <time>2025-02-24T09:49:12Z</time>
      </trkpt>
      <trkpt lat="43.48488" lon="6.31823">
        <ele>283.3</ele>
        <time>2025-02-24T09:49:27Z</time>
      </trkpt>
      <trkpt lat="43.48483" lon="6.31834">
        <ele>281.9</ele>
        <time>2025-02-24T09:49:39Z</time>
      </trkpt>
      <trkpt lat="43.48478" lon="6.31845">
        <ele>280.9</ele>
        <time>2025-02-24T09:49:51Z</time>
      </trkpt>
      <trkpt lat="43.4847" lon="6.31849">
        <ele>279.4</ele>
        <time>2025-02-24T09:50:06Z</time>
      </trkpt>
      <trkpt lat="43.48464" lon="6.3186">
        <ele>277.1</ele>
        <time>2025-02-24T09:50:23Z</time>
      </trkpt>
      <trkpt lat="43.4846" lon="6.31871">
        <ele>275.2</ele>
        <time>2025-02-24T09:50:39Z</time>
      </trkpt>
      <trkpt lat="43.48451" lon="6.31875">
        <ele>272.3</ele>
        <time>2025-02-24T09:50:54Z</time>
      </trkpt>
      <trkpt lat="43.48442" lon="6.3188">
        <ele>269.4</ele>
        <time>2025-02-24T09:51:10Z</time>
      </trkpt>
      <trkpt lat="43.48433" lon="6.31883">
        <ele>266.6</ele>
        <time>2025-02-24T09:51:27Z</time>
      </trkpt>
      <trkpt lat="43.48423" lon="6.31884">
        <ele>262.8</ele>
        <time>2025-02-24T09:51:44Z</time>
      </trkpt>
      <trkpt lat="43.48415" lon="6.31885">
        <ele>260.2</ele>
        <time>2025-02-24T09:52:11Z</time>
      </trkpt>
      <trkpt lat="43.48406" lon="6.31881">
        <ele>256.6</ele>
        <time>2025-02-24T09:53:17Z</time>
      </trkpt>
      <trkpt lat="43.48397" lon="6.31882">
        <ele>254.7</ele>
        <time>2025-02-24T09:54:55Z</time>
      </trkpt>
      <trkpt lat="43.48388" lon="6.3188">
        <ele>249.7</ele>
        <time>2025-02-24T09:56:57Z</time>
      </trkpt>
      <trkpt lat="43.48379" lon="6.31879">
        <ele>247.3</ele>
        <time>2025-02-24T09:57:43Z</time>
      </trkpt>
      <trkpt lat="43.4837" lon="6.31874">
        <ele>245.4</ele>
        <time>2025-02-24T09:59:39Z</time>
      </trkpt>
      <trkpt lat="43.48361" lon="6.31875">
        <ele>237.3</ele>
        <time>2025-02-24T10:02:50Z</time>
      </trkpt>
      <trkpt lat="43.48353" lon="6.3188">
        <ele>234.4</ele>
        <time>2025-02-24T10:04:18Z</time>
      </trkpt>
      <trkpt lat="43.48344" lon="6.3188">
        <ele>231.2</ele>
        <time>2025-02-24T10:05:19Z</time>
      </trkpt>
      <trkpt lat="43.48335" lon="6.31878">
        <ele>228.8</ele>
        <time>2025-02-24T10:06:04Z</time>
      </trkpt>
      <trkpt lat="43.48325" lon="6.31876">
        <ele>226.2</ele>
        <time>2025-02-24T10:06:31Z</time>
      </trkpt>
      <trkpt lat="43.48316" lon="6.31877">
        <ele>224.1</ele>
        <time>2025-02-24T10:06:47Z</time>
      </trkpt>
      <trkpt lat="43.48307" lon="6.31878">
        <ele>222.3</ele>
        <time>2025-02-24T10:07:00Z</time>
      </trkpt>
      <trkpt lat="43.48298" lon="6.31876">
        <ele>220.3</ele>
        <time>2025-02-24T10:08:34Z</time>
      </trkpt>
      <trkpt lat="43.48289" lon="6.31879">
        <ele>219.5</ele>
        <time>2025-02-24T10:11:13Z</time>
      </trkpt>
      <trkpt lat="43.48283" lon="6.3187">
        <ele>218.1</ele>
        <time>2025-02-24T10:14:11Z</time>
      </trkpt>
      <trkpt lat="43.48276" lon="6.31861">
        <ele>217.1</ele>
        <time>2025-02-24T10:14:38Z</time>
      </trkpt>
      <trkpt lat="43.48268" lon="6.31855">
        <ele>215.8</ele>
        <time>2025-02-24T10:14:54Z</time>
      </trkpt>
      <trkpt lat="43.48262" lon="6.31846">
        <ele>214.8</ele>
        <time>2025-02-24T10:15:07Z</time>
      </trkpt>
      <trkpt lat="43.48255" lon="6.31837">
        <ele>213.7</ele>
        <time>2025-02-24T10:15:18Z</time>
      </trkpt>
      <trkpt lat="43.48249" lon="6.31827">
        <ele>212.7</ele>
        <time>2025-02-24T10:15:27Z</time>
      </trkpt>
      <trkpt lat="43.48243" lon="6.31819">
        <ele>212</ele>
        <time>2025-02-24T10:15:37Z</time>
      </trkpt>
      <trkpt lat="43.48234" lon="6.31812">
        <ele>211.7</ele>
        <time>2025-02-24T10:15:47Z</time>
      </trkpt>
      <trkpt lat="43.48225" lon="6.31809">
        <ele>211.9</ele>
        <time>2025-02-24T10:15:57Z</time>
      </trkpt>
      <trkpt lat="43.48216" lon="6.31806">
        <ele>212.1</ele>
        <time>2025-02-24T10:16:07Z</time>
      </trkpt>
      <trkpt lat="43.48207" lon="6.31802">
        <ele>212.5</ele>
        <time>2025-02-24T10:16:17Z</time>
      </trkpt>
      <trkpt lat="43.48197" lon="6.31799">
        <ele>213</ele>
        <time>2025-02-24T10:16:30Z</time>
      </trkpt>
      <trkpt lat="43.48188" lon="6.31798">
        <ele>211.9</ele>
        <time>2025-02-24T10:16:40Z</time>
      </trkpt>
      <trkpt lat="43.4818" lon="6.31792">
        <ele>211.1</ele>
        <time>2025-02-24T10:16:56Z</time>
      </trkpt>
      <trkpt lat="43.4817" lon="6.31794">
        <ele>209.5</ele>
        <time>2025-02-24T10:17:14Z</time>
      </trkpt>
      <trkpt lat="43.48161" lon="6.31793">
        <ele>208.2</ele>
        <time>2025-02-24T10:17:27Z</time>
      </trkpt>
      <trkpt lat="43.48151" lon="6.31791">
        <ele>206.6</ele>
        <time>2025-02-24T10:17:42Z</time>
      </trkpt>
      <trkpt lat="43.48142" lon="6.31791">
        <ele>205.7</ele>
        <time>2025-02-24T10:17:56Z</time>
      </trkpt>
      <trkpt lat="43.48132" lon="6.31791">
        <ele>204</ele>
        <time>2025-02-24T10:18:22Z</time>
      </trkpt>
      <trkpt lat="43.48123" lon="6.31794">
        <ele>203.6</ele>
        <time>2025-02-24T10:18:31Z</time>
      </trkpt>
      <trkpt lat="43.48114" lon="6.318">
        <ele>201.7</ele>
        <time>2025-02-24T10:18:41Z</time>
      </trkpt>
      <trkpt lat="43.48111" lon="6.31811">
        <ele>199.7</ele>
        <time>2025-02-24T10:21:02Z</time>
      </trkpt>
      <trkpt lat="43.4812" lon="6.31815">
        <ele>199.3</ele>
        <time>2025-02-24T10:22:30Z</time>
      </trkpt>
      <trkpt lat="43.48127" lon="6.31823">
        <ele>198</ele>
        <time>2025-02-24T10:24:19Z</time>
      </trkpt>
      <trkpt lat="43.48131" lon="6.31834">
        <ele>196.1</ele>
        <time>2025-02-24T10:24:33Z</time>
      </trkpt>
      <trkpt lat="43.48132" lon="6.31848">
        <ele>193.6</ele>
        <time>2025-02-24T10:24:52Z</time>
      </trkpt>
      <trkpt lat="43.48135" lon="6.3186">
        <ele>191.7</ele>
        <time>2025-02-24T10:25:02Z</time>
      </trkpt>
      <trkpt lat="43.48135" lon="6.31873">
        <ele>190.1</ele>
        <time>2025-02-24T10:25:13Z</time>
      </trkpt>
      <trkpt lat="43.48138" lon="6.31885">
        <ele>189.7</ele>
        <time>2025-02-24T10:25:23Z</time>
      </trkpt>
      <trkpt lat="43.48139" lon="6.31898">
        <ele>190.7</ele>
        <time>2025-02-24T10:25:35Z</time>
      </trkpt>
      <trkpt lat="43.48133" lon="6.31908">
        <ele>192.7</ele>
        <time>2025-02-24T10:25:53Z</time>
      </trkpt>
      <trkpt lat="43.48127" lon="6.31918">
        <ele>194.6</ele>
        <time>2025-02-24T10:26:14Z</time>
      </trkpt>
      <trkpt lat="43.48124" lon="6.3193">
        <ele>196.2</ele>
        <time>2025-02-24T10:26:40Z</time>
      </trkpt>
      <trkpt lat="43.48121" lon="6.31942">
        <ele>198.2</ele>
        <time>2025-02-24T10:27:03Z</time>
      </trkpt>
      <trkpt lat="43.48124" lon="6.31955">
        <ele>199.6</ele>
        <time>2025-02-24T10:27:14Z</time>
      </trkpt>
      <trkpt lat="43.48127" lon="6.31967">
        <ele>200.2</ele>
        <time>2025-02-24T10:27:57Z</time>
      </trkpt>
      <trkpt lat="43.48128" lon="6.31981">
        <ele>200.2</ele>
        <time>2025-02-24T10:28:07Z</time>
      </trkpt>
      <trkpt lat="43.48129" lon="6.31994">
        <ele>200.4</ele>
        <time>2025-02-24T10:28:17Z</time>
      </trkpt>
      <trkpt lat="43.4813" lon="6.32007">
        <ele>200.4</ele>
        <time>2025-02-24T10:28:30Z</time>
      </trkpt>
      <trkpt lat="43.48136" lon="6.32018">
        <ele>200.1</ele>
        <time>2025-02-24T10:28:43Z</time>
      </trkpt>
      <trkpt lat="43.48142" lon="6.32027">
        <ele>199.1</ele>
        <time>2025-02-24T10:28:54Z</time>
      </trkpt>
      <trkpt lat="43.4815" lon="6.32035">
        <ele>198.3</ele>
        <time>2025-02-24T10:29:03Z</time>
      </trkpt>
      <trkpt lat="43.48154" lon="6.32047">
        <ele>197.9</ele>
        <time>2025-02-24T10:29:17Z</time>
      </trkpt>
      <trkpt lat="43.48153" lon="6.3206">
        <ele>198.2</ele>
        <time>2025-02-24T10:29:37Z</time>
      </trkpt>
      <trkpt lat="43.48154" lon="6.32073">
        <ele>198.8</ele>
        <time>2025-02-24T10:29:50Z</time>
      </trkpt>
      <trkpt lat="43.48154" lon="6.32086">
        <ele>199.6</ele>
        <time>2025-02-24T10:30:01Z</time>
      </trkpt>
      <trkpt lat="43.48154" lon="6.32099">
        <ele>200.2</ele>
        <time>2025-02-24T10:30:10Z</time>
      </trkpt>
      <trkpt lat="43.48155" lon="6.32112">
        <ele>200.9</ele>
        <time>2025-02-24T10:30:21Z</time>
      </trkpt>
      <trkpt lat="43.48158" lon="6.32124">
        <ele>201.5</ele>
        <time>2025-02-24T10:30:49Z</time>
      </trkpt>
      <trkpt lat="43.48159" lon="6.32136">
        <ele>201.6</ele>
        <time>2025-02-24T10:31:00Z</time>
      </trkpt>
      <trkpt lat="43.48162" lon="6.32149">
        <ele>201.9</ele>
        <time>2025-02-24T10:31:40Z</time>
      </trkpt>
      <trkpt lat="43.48165" lon="6.32161">
        <ele>201.8</ele>
        <time>2025-02-24T10:31:49Z</time>
      </trkpt>
      <trkpt lat="43.4817" lon="6.32172">
        <ele>201.5</ele>
        <time>2025-02-24T10:31:59Z</time>
      </trkpt>
      <trkpt lat="43.48175" lon="6.32183">
        <ele>201</ele>
        <time>2025-02-24T10:32:57Z</time>
      </trkpt>
      <trkpt lat="43.48182" lon="6.32191">
        <ele>200.3</ele>
        <time>2025-02-24T10:33:25Z</time>
      </trkpt>
      <trkpt lat="43.4819" lon="6.32198">
        <ele>199.4</ele>
        <time>2025-02-24T10:33:49Z</time>
      </trkpt>
      <trkpt lat="43.48198" lon="6.32205">
        <ele>198.9</ele>
        <time>2025-02-24T10:34:03Z</time>
      </trkpt>
      <trkpt lat="43.48204" lon="6.32215">
        <ele>198.6</ele>
        <time>2025-02-24T10:34:15Z</time>
      </trkpt>
      <trkpt lat="43.48209" lon="6.32225">
        <ele>198.6</ele>
        <time>2025-02-24T10:34:28Z</time>
      </trkpt>
      <trkpt lat="43.48211" lon="6.32239">
        <ele>198.2</ele>
        <time>2025-02-24T10:34:40Z</time>
      </trkpt>
      <trkpt lat="43.48212" lon="6.32251">
        <ele>198</ele>
        <time>2025-02-24T10:34:51Z</time>
      </trkpt>
      <trkpt lat="43.48212" lon="6.32264">
        <ele>198.1</ele>
        <time>2025-02-24T10:35:03Z</time>
      </trkpt>
      <trkpt lat="43.4821" lon="6.32276">
        <ele>198.3</ele>
        <time>2025-02-24T10:35:13Z</time>
      </trkpt>
      <trkpt lat="43.4821" lon="6.32289">
        <ele>198.1</ele>
        <time>2025-02-24T10:35:22Z</time>
      </trkpt>
      <trkpt lat="43.48209" lon="6.32302">
        <ele>197.7</ele>
        <time>2025-02-24T10:35:32Z</time>
      </trkpt>
      <trkpt lat="43.48209" lon="6.32315">
        <ele>197.5</ele>
        <time>2025-02-24T10:35:42Z</time>
      </trkpt>
      <trkpt lat="43.48208" lon="6.32327">
        <ele>197.5</ele>
        <time>2025-02-24T10:35:52Z</time>
      </trkpt>
      <trkpt lat="43.48209" lon="6.3234">
        <ele>197.6</ele>
        <time>2025-02-24T10:36:02Z</time>
      </trkpt>
      <trkpt lat="43.48212" lon="6.32352">
        <ele>197.1</ele>
        <time>2025-02-24T10:36:12Z</time>
      </trkpt>
      <trkpt lat="43.48217" lon="6.32363">
        <ele>197.5</ele>
        <time>2025-02-24T10:36:23Z</time>
      </trkpt>
      <trkpt lat="43.4822" lon="6.32376">
        <ele>197.4</ele>
        <time>2025-02-24T10:36:36Z</time>
      </trkpt>
      <trkpt lat="43.48225" lon="6.32387">
        <ele>197.3</ele>
        <time>2025-02-24T10:36:47Z</time>
      </trkpt>
      <trkpt lat="43.48229" lon="6.32398">
        <ele>196.9</ele>
        <time>2025-02-24T10:37:15Z</time>
      </trkpt>
      <trkpt lat="43.48235" lon="6.32408">
        <ele>196.5</ele>
        <time>2025-02-24T10:38:28Z</time>
      </trkpt>
      <trkpt lat="43.48238" lon="6.3242">
        <ele>196.2</ele>
        <time>2025-02-24T10:38:38Z</time>
      </trkpt>
      <trkpt lat="43.48243" lon="6.32431">
        <ele>195.9</ele>
        <time>2025-02-24T10:38:47Z</time>
      </trkpt>
      <trkpt lat="43.48246" lon="6.32443">
        <ele>195.9</ele>
        <time>2025-02-24T10:38:58Z</time>
      </trkpt>
      <trkpt lat="43.48253" lon="6.32453">
        <ele>196.4</ele>
        <time>2025-02-24T10:39:08Z</time>
      </trkpt>
      <trkpt lat="43.48258" lon="6.32464">
        <ele>196.8</ele>
        <time>2025-02-24T10:39:18Z</time>
      </trkpt>
      <trkpt lat="43.48262" lon="6.32475">
        <ele>196.5</ele>
        <time>2025-02-24T10:39:37Z</time>
      </trkpt>
      <trkpt lat="43.48271" lon="6.32478">
        <ele>196.1</ele>
        <time>2025-02-24T10:40:17Z</time>
      </trkpt>
      <trkpt lat="43.48278" lon="6.32487">
        <ele>195.6</ele>
        <time>2025-02-24T10:40:59Z</time>
      </trkpt>
      <trkpt lat="43.48284" lon="6.32497">
        <ele>194.3</ele>
        <time>2025-02-24T10:41:17Z</time>
      </trkpt>
      <trkpt lat="43.48292" lon="6.32504">
        <ele>193.3</ele>
        <time>2025-02-24T10:41:34Z</time>
      </trkpt>
      <trkpt lat="43.483" lon="6.32511">
        <ele>191.8</ele>
        <time>2025-02-24T10:41:49Z</time>
      </trkpt>
      <trkpt lat="43.48305" lon="6.32521">
        <ele>191</ele>
        <time>2025-02-24T10:42:15Z</time>
      </trkpt>
      <trkpt lat="43.48309" lon="6.32533">
        <ele>191.1</ele>
        <time>2025-02-24T10:42:24Z</time>
      </trkpt>
      <trkpt lat="43.48311" lon="6.32547">
        <ele>191</ele>
        <time>2025-02-24T10:42:39Z</time>
      </trkpt>
      <trkpt lat="43.48313" lon="6.3256">
        <ele>191.2</ele>
        <time>2025-02-24T10:42:48Z</time>
      </trkpt>
      <trkpt lat="43.48317" lon="6.32572">
        <ele>191.5</ele>
        <time>2025-02-24T10:43:02Z</time>
      </trkpt>
      <trkpt lat="43.48318" lon="6.32585">
        <ele>192</ele>
        <time>2025-02-24T10:43:13Z</time>
      </trkpt>
      <trkpt lat="43.48319" lon="6.32598">
        <ele>192.8</ele>
        <time>2025-02-24T10:43:23Z</time>
      </trkpt>
      <trkpt lat="43.48322" lon="6.32611">
        <ele>193.6</ele>
        <time>2025-02-24T10:43:33Z</time>
      </trkpt>
      <trkpt lat="43.48324" lon="6.32624">
        <ele>194.1</ele>
        <time>2025-02-24T10:43:45Z</time>
      </trkpt>
      <trkpt lat="43.48329" lon="6.32635">
        <ele>193.9</ele>
        <time>2025-02-24T10:43:54Z</time>
      </trkpt>
      <trkpt lat="43.48334" lon="6.32646">
        <ele>193.9</ele>
        <time>2025-02-24T10:44:05Z</time>
      </trkpt>
      <trkpt lat="43.4834" lon="6.32657">
        <ele>193.3</ele>
        <time>2025-02-24T10:44:18Z</time>
      </trkpt>
      <trkpt lat="43.48343" lon="6.32669">
        <ele>192.6</ele>
        <time>2025-02-24T10:44:31Z</time>
      </trkpt>
      <trkpt lat="43.48348" lon="6.32681">
        <ele>190.7</ele>
        <time>2025-02-24T10:44:41Z</time>
      </trkpt>
      <trkpt lat="43.48354" lon="6.3269">
        <ele>188.9</ele>
        <time>2025-02-24T10:44:59Z</time>
      </trkpt>
      <trkpt lat="43.48357" lon="6.32702">
        <ele>187.8</ele>
        <time>2025-02-24T10:45:28Z</time>
      </trkpt>
      <trkpt lat="43.48359" lon="6.32715">
        <ele>186.7</ele>
        <time>2025-02-24T10:45:44Z</time>
      </trkpt>
      <trkpt lat="43.48364" lon="6.32727">
        <ele>184.6</ele>
        <time>2025-02-24T10:45:55Z</time>
      </trkpt>
      <trkpt lat="43.48368" lon="6.32738">
        <ele>183.7</ele>
        <time>2025-02-24T10:46:08Z</time>
      </trkpt>
      <trkpt lat="43.48375" lon="6.32747">
        <ele>182.9</ele>
        <time>2025-02-24T10:46:20Z</time>
      </trkpt>
      <trkpt lat="43.48381" lon="6.32757">
        <ele>182.5</ele>
        <time>2025-02-24T10:46:31Z</time>
      </trkpt>
      <trkpt lat="43.48386" lon="6.32768">
        <ele>183.1</ele>
        <time>2025-02-24T10:46:41Z</time>
      </trkpt>
      <trkpt lat="43.48393" lon="6.32777">
        <ele>183.7</ele>
        <time>2025-02-24T10:46:52Z</time>
      </trkpt>
      <trkpt lat="43.48399" lon="6.32788">
        <ele>183.8</ele>
        <time>2025-02-24T10:47:05Z</time>
      </trkpt>
      <trkpt lat="43.48403" lon="6.32799">
        <ele>184</ele>
        <time>2025-02-24T10:47:15Z</time>
      </trkpt>
      <trkpt lat="43.48408" lon="6.32811">
        <ele>183.5</ele>
        <time>2025-02-24T10:47:27Z</time>
      </trkpt>
      <trkpt lat="43.48411" lon="6.32824">
        <ele>183.8</ele>
        <time>2025-02-24T10:47:39Z</time>
      </trkpt>
      <trkpt lat="43.48415" lon="6.32835">
        <ele>183.5</ele>
        <time>2025-02-24T10:47:48Z</time>
      </trkpt>
      <trkpt lat="43.48419" lon="6.32846">
        <ele>183.1</ele>
        <time>2025-02-24T10:48:12Z</time>
      </trkpt>
      <trkpt lat="43.48424" lon="6.32858">
        <ele>183</ele>
        <time>2025-02-24T10:48:23Z</time>
      </trkpt>
      <trkpt lat="43.48427" lon="6.3287">
        <ele>182.4</ele>
        <time>2025-02-24T10:48:33Z</time>
      </trkpt>
      <trkpt lat="43.4843" lon="6.32882">
        <ele>182.4</ele>
        <time>2025-02-24T10:48:44Z</time>
      </trkpt>
      <trkpt lat="43.48431" lon="6.32895">
        <ele>182.5</ele>
        <time>2025-02-24T10:48:54Z</time>
      </trkpt>
      <trkpt lat="43.48431" lon="6.32908">
        <ele>182.2</ele>
        <time>2025-02-24T10:49:04Z</time>
      </trkpt>
      <trkpt lat="43.48431" lon="6.32921">
        <ele>182.1</ele>
        <time>2025-02-24T10:49:14Z</time>
      </trkpt>
      <trkpt lat="43.4843" lon="6.32935">
        <ele>182</ele>
        <time>2025-02-24T10:49:24Z</time>
      </trkpt>
      <trkpt lat="43.48431" lon="6.32947">
        <ele>181.5</ele>
        <time>2025-02-24T10:49:34Z</time>
      </trkpt>
      <trkpt lat="43.48432" lon="6.32961">
        <ele>181.6</ele>
        <time>2025-02-24T10:49:45Z</time>
      </trkpt>
      <trkpt lat="43.48432" lon="6.32973">
        <ele>181.4</ele>
        <time>2025-02-24T10:49:55Z</time>
      </trkpt>
      <trkpt lat="43.48434" lon="6.32986">
        <ele>181.1</ele>
        <time>2025-02-24T10:50:04Z</time>
      </trkpt>
      <trkpt lat="43.48436" lon="6.32999">
        <ele>180.6</ele>
        <time>2025-02-24T10:50:14Z</time>
      </trkpt>
      <trkpt lat="43.48436" lon="6.33012">
        <ele>180</ele>
        <time>2025-02-24T10:50:25Z</time>
      </trkpt>
      <trkpt lat="43.48439" lon="6.33025">
        <ele>179.5</ele>
        <time>2025-02-24T10:50:37Z</time>
      </trkpt>
      <trkpt lat="43.48437" lon="6.33038">
        <ele>178.6</ele>
        <time>2025-02-24T10:50:48Z</time>
      </trkpt>
      <trkpt lat="43.48435" lon="6.3305">
        <ele>177.3</ele>
        <time>2025-02-24T10:50:59Z</time>
      </trkpt>
      <trkpt lat="43.48432" lon="6.33062">
        <ele>176.4</ele>
        <time>2025-02-24T10:51:10Z</time>
      </trkpt>
      <trkpt lat="43.48427" lon="6.33074">
        <ele>175.9</ele>
        <time>2025-02-24T10:51:19Z</time>
      </trkpt>
      <trkpt lat="43.48423" lon="6.33085">
        <ele>175.3</ele>
        <time>2025-02-24T10:51:29Z</time>
      </trkpt>
      <trkpt lat="43.48413" lon="6.33087">
        <ele>173.4</ele>
        <time>2025-02-24T10:51:46Z</time>
      </trkpt>
      <trkpt lat="43.48405" lon="6.33095">
        <ele>174.7</ele>
        <time>2025-02-24T10:51:53Z</time>
      </trkpt>
      <trkpt lat="43.48396" lon="6.33093">
        <ele>174.7</ele>
        <time>2025-02-24T10:52:01Z</time>
      </trkpt>
      <trkpt lat="43.48387" lon="6.33089">
        <ele>174.1</ele>
        <time>2025-02-24T10:52:15Z</time>
      </trkpt>
      <trkpt lat="43.48378" lon="6.33091">
        <ele>173.2</ele>
        <time>2025-02-24T10:52:24Z</time>
      </trkpt>
      <trkpt lat="43.48367" lon="6.33094">
        <ele>174.6</ele>
        <time>2025-02-24T10:52:34Z</time>
      </trkpt>
      <trkpt lat="43.48358" lon="6.33095">
        <ele>173.8</ele>
        <time>2025-02-24T10:52:44Z</time>
      </trkpt>
      <trkpt lat="43.48349" lon="6.33096">
        <ele>173.3</ele>
        <time>2025-02-24T10:52:53Z</time>
      </trkpt>
      <trkpt lat="43.48339" lon="6.33097">
        <ele>172.1</ele>
        <time>2025-02-24T10:53:05Z</time>
      </trkpt>
      <trkpt lat="43.48329" lon="6.33099">
        <ele>172.1</ele>
        <time>2025-02-24T10:53:14Z</time>
      </trkpt>
      <trkpt lat="43.4832" lon="6.33099">
        <ele>171.6</ele>
        <time>2025-02-24T10:53:25Z</time>
      </trkpt>
      <trkpt lat="43.48311" lon="6.33099">
        <ele>171</ele>
        <time>2025-02-24T10:53:34Z</time>
      </trkpt>
      <trkpt lat="43.48301" lon="6.331">
        <ele>170.6</ele>
        <time>2025-02-24T10:53:45Z</time>
      </trkpt>
      <trkpt lat="43.48292" lon="6.33102">
        <ele>169.6</ele>
        <time>2025-02-24T10:53:56Z</time>
      </trkpt>
      <trkpt lat="43.48282" lon="6.33102">
        <ele>170.3</ele>
        <time>2025-02-24T10:54:22Z</time>
      </trkpt>
      <trkpt lat="43.48273" lon="6.33104">
        <ele>169.7</ele>
        <time>2025-02-24T10:55:18Z</time>
      </trkpt>
      <trkpt lat="43.48263" lon="6.33104">
        <ele>168</ele>
        <time>2025-02-24T10:55:32Z</time>
      </trkpt>
      <trkpt lat="43.48253" lon="6.33104">
        <ele>167.1</ele>
        <time>2025-02-24T10:55:43Z</time>
      </trkpt>
      <trkpt lat="43.48243" lon="6.33105">
        <ele>165.5</ele>
        <time>2025-02-24T10:55:53Z</time>
      </trkpt>
      <trkpt lat="43.48234" lon="6.33108">
        <ele>165.6</ele>
        <time>2025-02-24T10:56:03Z</time>
      </trkpt>
      <trkpt lat="43.48225" lon="6.33107">
        <ele>165</ele>
        <time>2025-02-24T10:56:11Z</time>
      </trkpt>
      <trkpt lat="43.48216" lon="6.33102">
        <ele>164.7</ele>
        <time>2025-02-24T10:56:36Z</time>
      </trkpt>
      <trkpt lat="43.48206" lon="6.33097">
        <ele>163.6</ele>
        <time>2025-02-24T10:56:49Z</time>
      </trkpt>
      <trkpt lat="43.48196" lon="6.33093">
        <ele>163.1</ele>
        <time>2025-02-24T10:56:58Z</time>
      </trkpt>
      <trkpt lat="43.48188" lon="6.33087">
        <ele>162.7</ele>
        <time>2025-02-24T10:57:06Z</time>
      </trkpt>
      <trkpt lat="43.48181" lon="6.33078">
        <ele>162</ele>
        <time>2025-02-24T10:57:16Z</time>
      </trkpt>
      <trkpt lat="43.48177" lon="6.33066">
        <ele>161.4</ele>
        <time>2025-02-24T10:57:24Z</time>
      </trkpt>
      <trkpt lat="43.48174" lon="6.33053">
        <ele>161</ele>
        <time>2025-02-24T10:57:33Z</time>
      </trkpt>
      <trkpt lat="43.48172" lon="6.3304">
        <ele>160.7</ele>
        <time>2025-02-24T10:57:41Z</time>
      </trkpt>
      <trkpt lat="43.4817" lon="6.33027">
        <ele>160.5</ele>
        <time>2025-02-24T10:57:50Z</time>
      </trkpt>
      <trkpt lat="43.48166" lon="6.33014">
        <ele>160.3</ele>
        <time>2025-02-24T10:58:00Z</time>
      </trkpt>
      <trkpt lat="43.48162" lon="6.33003">
        <ele>160</ele>
        <time>2025-02-24T10:58:10Z</time>
      </trkpt>
      <trkpt lat="43.48161" lon="6.32989">
        <ele>160.1</ele>
        <time>2025-02-24T10:58:19Z</time>
      </trkpt>
      <trkpt lat="43.48159" lon="6.32976">
        <ele>160.3</ele>
        <time>2025-02-24T10:58:28Z</time>
      </trkpt>
      <trkpt lat="43.48157" lon="6.32964">
        <ele>160.7</ele>
        <time>2025-02-24T10:58:37Z</time>
      </trkpt>
      <trkpt lat="43.48155" lon="6.32951">
        <ele>161.1</ele>
        <time>2025-02-24T10:58:46Z</time>
      </trkpt>
      <trkpt lat="43.48153" lon="6.32939">
        <ele>161.4</ele>
        <time>2025-02-24T10:58:55Z</time>
      </trkpt>
      <trkpt lat="43.48151" lon="6.32926">
        <ele>161.7</ele>
        <time>2025-02-24T10:59:04Z</time>
      </trkpt>
      <trkpt lat="43.48149" lon="6.32913">
        <ele>162</ele>
        <time>2025-02-24T10:59:14Z</time>
      </trkpt>
      <trkpt lat="43.48147" lon="6.32901">
        <ele>162.3</ele>
        <time>2025-02-24T10:59:24Z</time>
      </trkpt>
      <trkpt lat="43.48144" lon="6.32887">
        <ele>162.5</ele>
        <time>2025-02-24T10:59:34Z</time>
      </trkpt>
      <trkpt lat="43.48143" lon="6.32873">
        <ele>162.8</ele>
        <time>2025-02-24T10:59:43Z</time>
      </trkpt>
      <trkpt lat="43.48145" lon="6.32861">
        <ele>163.6</ele>
        <time>2025-02-24T11:00:11Z</time>
      </trkpt>
      <trkpt lat="43.48147" lon="6.32865">
        <ele>164</ele>
        <time>2025-02-24T11:02:03Z</time>
      </trkpt>
    </trkseg>
  </trk>
</gpx>